sensor_id;sensor_type;location;lat;lon;timestamp;P1;durP1;ratioP1;P2;durP2;ratioP2
16975;SDS011;8604;48.148;-1.786;2024-02-21T00:02:20;4.80;;;2.70;;
16975;SDS011;8604;48.148;-1.786;2024-02-21T00:04:50;5.47;;;2.60;;
16975;SDS011;8604;48.148;-1.786;2024-02-21T00:07:19;5.83;;;2.63;;
16975;SDS011;8604;48.148;-1.786;2024-02-21T00:09:47;5.63;;;2.60;;
16975;SDS011;8604;48.148;-1.786;2024-02-21T00:12:15;5.20;;;2.57;;
16975;SDS011;8604;48.148;-1.786;2024-02-21T00:14:44;7.27;;;3.00;;
16975;SDS011;8604;48.148;-1.786;2024-02-21T00:17:13;6.10;;;2.70;;
16975;SDS011;8604;48.148;-1.786;2024-02-21T00:19:41;4.60;;;2.90;;
16975;SDS011;8604;48.148;-1.786;2024-02-21T00:22:11;6.60;;;3.20;;
16975;SDS011;8604;48.148;-1.786;2024-02-21T00:24:39;4.37;;;2.70;;
16975;SDS011;8604;48.148;-1.786;2024-02-21T00:27:08;5.20;;;2.90;;
16975;SDS011;8604;48.148;-1.786;2024-02-21T00:29:36;5.03;;;3.10;;
16975;SDS011;8604;48.148;-1.786;2024-02-21T00:32:05;5.70;;;2.77;;
16975;SDS011;8604;48.148;-1.786;2024-02-21T00:34:33;6.03;;;3.20;;
16975;SDS011;8604;48.148;-1.786;2024-02-21T00:37:02;6.53;;;3.40;;
16975;SDS011;8604;48.148;-1.786;2024-02-21T00:39:32;6.03;;;3.37;;
16975;SDS011;8604;48.148;-1.786;2024-02-21T00:42:00;5.33;;;3.23;;
16975;SDS011;8604;48.148;-1.786;2024-02-21T00:44:29;5.80;;;3.33;;
16975;SDS011;8604;48.148;-1.786;2024-02-21T00:46:57;7.00;;;3.63;;
16975;SDS011;8604;48.148;-1.786;2024-02-21T00:49:25;6.00;;;3.50;;
16975;SDS011;8604;48.148;-1.786;2024-02-21T00:51:54;7.43;;;3.50;;
16975;SDS011;8604;48.148;-1.786;2024-02-21T00:54:22;4.97;;;3.30;;
16975;SDS011;8604;48.148;-1.786;2024-02-21T00:56:52;5.33;;;3.33;;
16975;SDS011;8604;48.148;-1.786;2024-02-21T00:59:21;7.57;;;3.90;;
16975;SDS011;8604;48.148;-1.786;2024-02-21T01:01:49;6.17;;;3.50;;
16975;SDS011;8604;48.148;-1.786;2024-02-21T01:04:18;6.33;;;3.53;;
16975;SDS011;8604;48.148;-1.786;2024-02-21T01:06:46;6.93;;;3.47;;
16975;SDS011;8604;48.148;-1.786;2024-02-21T01:09:14;5.57;;;3.20;;
16975;SDS011;8604;48.148;-1.786;2024-02-21T01:11:43;8.77;;;3.67;;
16975;SDS011;8604;48.148;-1.786;2024-02-21T01:14:12;6.63;;;3.30;;
16975;SDS011;8604;48.148;-1.786;2024-02-21T01:16:41;7.43;;;3.70;;
16975;SDS011;8604;48.148;-1.786;2024-02-21T01:19:09;8.40;;;3.57;;
16975;SDS011;8604;48.148;-1.786;2024-02-21T01:21:38;9.83;;;4.00;;
16975;SDS011;8604;48.148;-1.786;2024-02-21T01:24:06;8.00;;;3.53;;
16975;SDS011;8604;48.148;-1.786;2024-02-21T01:26:34;10.47;;;3.70;;
16975;SDS011;8604;48.148;-1.786;2024-02-21T01:29:02;6.40;;;3.20;;
16975;SDS011;8604;48.148;-1.786;2024-02-21T01:31:32;10.03;;;3.67;;
16975;SDS011;8604;48.148;-1.786;2024-02-21T01:34:01;7.63;;;3.60;;
16975;SDS011;8604;48.148;-1.786;2024-02-21T01:36:29;8.43;;;3.70;;
16975;SDS011;8604;48.148;-1.786;2024-02-21T01:38:57;10.47;;;3.40;;
16975;SDS011;8604;48.148;-1.786;2024-02-21T01:41:25;6.27;;;3.33;;
16975;SDS011;8604;48.148;-1.786;2024-02-21T01:43:54;9.23;;;3.80;;
16975;SDS011;8604;48.148;-1.786;2024-02-21T01:46:22;9.97;;;3.47;;
16975;SDS011;8604;48.148;-1.786;2024-02-21T01:48:56;8.57;;;3.20;;
16975;SDS011;8604;48.148;-1.786;2024-02-21T01:51:25;9.30;;;3.30;;
16975;SDS011;8604;48.148;-1.786;2024-02-21T01:53:55;8.07;;;3.70;;
16975;SDS011;8604;48.148;-1.786;2024-02-21T01:56:24;7.87;;;3.20;;
16975;SDS011;8604;48.148;-1.786;2024-02-21T01:58:52;8.73;;;3.50;;
16975;SDS011;8604;48.148;-1.786;2024-02-21T02:01:21;8.60;;;3.30;;
16975;SDS011;8604;48.148;-1.786;2024-02-21T02:03:50;5.30;;;3.60;;
16975;SDS011;8604;48.148;-1.786;2024-02-21T02:06:21;8.37;;;3.40;;
16975;SDS011;8604;48.148;-1.786;2024-02-21T02:08:49;8.70;;;3.17;;
16975;SDS011;8604;48.148;-1.786;2024-02-21T02:11:18;8.67;;;3.53;;
16975;SDS011;8604;48.148;-1.786;2024-02-21T02:13:46;8.57;;;3.37;;
16975;SDS011;8604;48.148;-1.786;2024-02-21T02:16:15;9.93;;;3.53;;
16975;SDS011;8604;48.148;-1.786;2024-02-21T02:18:43;7.80;;;3.20;;
16975;SDS011;8604;48.148;-1.786;2024-02-21T02:21:13;7.43;;;3.50;;
16975;SDS011;8604;48.148;-1.786;2024-02-21T02:23:52;8.00;;;3.10;;
16975;SDS011;8604;48.148;-1.786;2024-02-21T02:26:21;10.73;;;3.40;;
16975;SDS011;8604;48.148;-1.786;2024-02-21T02:28:49;9.60;;;3.60;;
16975;SDS011;8604;48.148;-1.786;2024-02-21T02:31:17;8.93;;;3.53;;
16975;SDS011;8604;48.148;-1.786;2024-02-21T02:33:46;9.63;;;3.83;;
16975;SDS011;8604;48.148;-1.786;2024-02-21T02:36:14;7.93;;;3.80;;
16975;SDS011;8604;48.148;-1.786;2024-02-21T02:38:44;7.67;;;3.80;;
16975;SDS011;8604;48.148;-1.786;2024-02-21T02:41:14;7.23;;;4.03;;
16975;SDS011;8604;48.148;-1.786;2024-02-21T02:43:42;8.03;;;3.40;;
16975;SDS011;8604;48.148;-1.786;2024-02-21T02:46:10;6.40;;;3.10;;
16975;SDS011;8604;48.148;-1.786;2024-02-21T02:48:39;6.60;;;3.27;;
16975;SDS011;8604;48.148;-1.786;2024-02-21T02:51:07;8.43;;;3.03;;
16975;SDS011;8604;48.148;-1.786;2024-02-21T02:53:36;7.30;;;3.13;;
16975;SDS011;8604;48.148;-1.786;2024-02-21T02:56:04;6.67;;;2.70;;
16975;SDS011;8604;48.148;-1.786;2024-02-21T02:58:34;7.93;;;3.00;;
16975;SDS011;8604;48.148;-1.786;2024-02-21T03:01:02;7.83;;;2.90;;
16975;SDS011;8604;48.148;-1.786;2024-02-21T03:03:31;6.73;;;2.97;;
16975;SDS011;8604;48.148;-1.786;2024-02-21T03:06:00;5.83;;;2.70;;
16975;SDS011;8604;48.148;-1.786;2024-02-21T03:08:28;4.73;;;2.40;;
16975;SDS011;8604;48.148;-1.786;2024-02-21T03:10:57;8.97;;;3.00;;
16975;SDS011;8604;48.148;-1.786;2024-02-21T03:13:26;4.57;;;2.53;;
16975;SDS011;8604;48.148;-1.786;2024-02-21T03:15:56;5.50;;;2.57;;
16975;SDS011;8604;48.148;-1.786;2024-02-21T03:18:24;6.70;;;2.80;;
16975;SDS011;8604;48.148;-1.786;2024-02-21T03:20:53;9.10;;;2.80;;
16975;SDS011;8604;48.148;-1.786;2024-02-21T03:23:21;8.37;;;3.00;;
16975;SDS011;8604;48.148;-1.786;2024-02-21T03:25:50;9.77;;;2.80;;
16975;SDS011;8604;48.148;-1.786;2024-02-21T03:28:18;8.17;;;2.53;;
16975;SDS011;8604;48.148;-1.786;2024-02-21T03:30:47;7.87;;;2.20;;
16975;SDS011;8604;48.148;-1.786;2024-02-21T03:33:16;5.83;;;2.40;;
16975;SDS011;8604;48.148;-1.786;2024-02-21T03:35:46;7.70;;;2.50;;
16975;SDS011;8604;48.148;-1.786;2024-02-21T03:38:15;6.90;;;2.63;;
16975;SDS011;8604;48.148;-1.786;2024-02-21T03:40:43;4.97;;;2.20;;
16975;SDS011;8604;48.148;-1.786;2024-02-21T03:43:12;6.57;;;2.63;;
16975;SDS011;8604;48.148;-1.786;2024-02-21T03:45:40;9.63;;;2.40;;
16975;SDS011;8604;48.148;-1.786;2024-02-21T03:48:09;8.13;;;2.40;;
16975;SDS011;8604;48.148;-1.786;2024-02-21T03:50:39;5.17;;;2.40;;
16975;SDS011;8604;48.148;-1.786;2024-02-21T03:53:08;7.70;;;2.30;;
16975;SDS011;8604;48.148;-1.786;2024-02-21T03:55:37;4.80;;;2.40;;
16975;SDS011;8604;48.148;-1.786;2024-02-21T03:58:05;6.33;;;2.77;;
16975;SDS011;8604;48.148;-1.786;2024-02-21T04:00:34;5.97;;;2.50;;
16975;SDS011;8604;48.148;-1.786;2024-02-21T04:03:03;5.90;;;2.63;;
16975;SDS011;8604;48.148;-1.786;2024-02-21T04:05:33;8.50;;;2.47;;
16975;SDS011;8604;48.148;-1.786;2024-02-21T04:08:04;7.73;;;2.57;;
16975;SDS011;8604;48.148;-1.786;2024-02-21T04:10:33;7.57;;;2.60;;
16975;SDS011;8604;48.148;-1.786;2024-02-21T04:13:02;6.90;;;2.70;;
16975;SDS011;8604;48.148;-1.786;2024-02-21T04:15:31;6.30;;;2.40;;
16975;SDS011;8604;48.148;-1.786;2024-02-21T04:17:59;7.10;;;2.80;;
16975;SDS011;8604;48.148;-1.786;2024-02-21T04:20:28;7.70;;;2.60;;
16975;SDS011;8604;48.148;-1.786;2024-02-21T04:22:56;7.40;;;2.40;;
16975;SDS011;8604;48.148;-1.786;2024-02-21T04:25:26;6.20;;;2.87;;
16975;SDS011;8604;48.148;-1.786;2024-02-21T04:27:54;8.90;;;3.20;;
16975;SDS011;8604;48.148;-1.786;2024-02-21T04:30:23;8.13;;;2.83;;
16975;SDS011;8604;48.148;-1.786;2024-02-21T04:32:51;6.60;;;2.63;;
16975;SDS011;8604;48.148;-1.786;2024-02-21T04:35:19;5.00;;;2.53;;
16975;SDS011;8604;48.148;-1.786;2024-02-21T04:37:48;5.17;;;2.63;;
16975;SDS011;8604;48.148;-1.786;2024-02-21T04:40:17;8.17;;;2.70;;
16975;SDS011;8604;48.148;-1.786;2024-02-21T04:42:47;6.60;;;2.80;;
16975;SDS011;8604;48.148;-1.786;2024-02-21T04:45:15;9.97;;;2.90;;
16975;SDS011;8604;48.148;-1.786;2024-02-21T04:47:44;6.43;;;2.90;;
16975;SDS011;8604;48.148;-1.786;2024-02-21T04:50:13;7.27;;;2.80;;
16975;SDS011;8604;48.148;-1.786;2024-02-21T04:52:41;9.47;;;3.13;;
16975;SDS011;8604;48.148;-1.786;2024-02-21T04:55:10;7.27;;;3.00;;
16975;SDS011;8604;48.148;-1.786;2024-02-21T04:57:38;9.33;;;3.27;;
16975;SDS011;8604;48.148;-1.786;2024-02-21T05:00:08;6.90;;;3.10;;
16975;SDS011;8604;48.148;-1.786;2024-02-21T05:02:37;8.57;;;3.50;;
16975;SDS011;8604;48.148;-1.786;2024-02-21T05:05:06;7.53;;;3.10;;
16975;SDS011;8604;48.148;-1.786;2024-02-21T05:07:35;7.83;;;3.33;;
16975;SDS011;8604;48.148;-1.786;2024-02-21T05:10:03;8.47;;;3.10;;
16975;SDS011;8604;48.148;-1.786;2024-02-21T05:12:32;6.97;;;3.10;;
16975;SDS011;8604;48.148;-1.786;2024-02-21T05:15:01;7.27;;;3.23;;
16975;SDS011;8604;48.148;-1.786;2024-02-21T05:17:31;10.23;;;3.73;;
16975;SDS011;8604;48.148;-1.786;2024-02-21T05:19:59;6.87;;;3.07;;
16975;SDS011;8604;48.148;-1.786;2024-02-21T05:22:28;7.90;;;3.00;;
16975;SDS011;8604;48.148;-1.786;2024-02-21T05:24:56;7.93;;;3.20;;
16975;SDS011;8604;48.148;-1.786;2024-02-21T05:27:25;7.47;;;3.10;;
16975;SDS011;8604;48.148;-1.786;2024-02-21T05:29:53;6.17;;;3.00;;
16975;SDS011;8604;48.148;-1.786;2024-02-21T05:32:21;7.47;;;3.40;;
16975;SDS011;8604;48.148;-1.786;2024-02-21T05:34:51;7.77;;;3.43;;
16975;SDS011;8604;48.148;-1.786;2024-02-21T05:37:20;9.60;;;3.40;;
16975;SDS011;8604;48.148;-1.786;2024-02-21T05:39:48;7.27;;;3.40;;
16975;SDS011;8604;48.148;-1.786;2024-02-21T05:42:16;6.03;;;3.37;;
16975;SDS011;8604;48.148;-1.786;2024-02-21T05:44:44;6.40;;;3.43;;
16975;SDS011;8604;48.148;-1.786;2024-02-21T05:47:13;7.03;;;3.63;;
16975;SDS011;8604;48.148;-1.786;2024-02-21T05:49:42;7.80;;;3.67;;
16975;SDS011;8604;48.148;-1.786;2024-02-21T05:52:12;10.93;;;3.50;;
16975;SDS011;8604;48.148;-1.786;2024-02-21T05:54:40;7.97;;;3.60;;
16975;SDS011;8604;48.148;-1.786;2024-02-21T05:57:09;6.67;;;3.47;;
16975;SDS011;8604;48.148;-1.786;2024-02-21T05:59:37;8.17;;;3.37;;
16975;SDS011;8604;48.148;-1.786;2024-02-21T06:02:08;8.57;;;3.67;;
16975;SDS011;8604;48.148;-1.786;2024-02-21T06:04:37;9.37;;;3.73;;
16975;SDS011;8604;48.148;-1.786;2024-02-21T06:07:06;10.37;;;3.50;;
16975;SDS011;8604;48.148;-1.786;2024-02-21T06:09:36;7.67;;;3.50;;
16975;SDS011;8604;48.148;-1.786;2024-02-21T06:12:04;7.43;;;3.33;;
16975;SDS011;8604;48.148;-1.786;2024-02-21T06:14:33;9.13;;;3.90;;
16975;SDS011;8604;48.148;-1.786;2024-02-21T06:17:01;7.43;;;3.50;;
16975;SDS011;8604;48.148;-1.786;2024-02-21T06:19:30;11.07;;;3.90;;
16975;SDS011;8604;48.148;-1.786;2024-02-21T06:21:58;8.23;;;4.07;;
16975;SDS011;8604;48.148;-1.786;2024-02-21T06:24:27;11.30;;;4.63;;
16975;SDS011;8604;48.148;-1.786;2024-02-21T06:26:56;8.87;;;4.43;;
16975;SDS011;8604;48.148;-1.786;2024-02-21T06:29:25;10.53;;;4.30;;
16975;SDS011;8604;48.148;-1.786;2024-02-21T06:31:53;10.20;;;4.50;;
16975;SDS011;8604;48.148;-1.786;2024-02-21T06:34:21;10.07;;;4.40;;
16975;SDS011;8604;48.148;-1.786;2024-02-21T06:36:50;9.70;;;4.70;;
16975;SDS011;8604;48.148;-1.786;2024-02-21T06:39:19;8.90;;;4.80;;
16975;SDS011;8604;48.148;-1.786;2024-02-21T06:41:49;11.93;;;5.27;;
16975;SDS011;8604;48.148;-1.786;2024-02-21T06:44:20;9.60;;;4.67;;
16975;SDS011;8604;48.148;-1.786;2024-02-21T06:46:49;8.63;;;4.77;;
16975;SDS011;8604;48.148;-1.786;2024-02-21T06:49:17;9.23;;;4.27;;
16975;SDS011;8604;48.148;-1.786;2024-02-21T06:51:46;9.67;;;4.60;;
16975;SDS011;8604;48.148;-1.786;2024-02-21T06:54:14;11.90;;;4.53;;
16975;SDS011;8604;48.148;-1.786;2024-02-21T06:56:42;9.43;;;4.67;;
16975;SDS011;8604;48.148;-1.786;2024-02-21T06:59:11;8.77;;;4.53;;
16975;SDS011;8604;48.148;-1.786;2024-02-21T07:01:45;8.00;;;4.33;;
16975;SDS011;8604;48.148;-1.786;2024-02-21T07:04:15;9.23;;;5.00;;
16975;SDS011;8604;48.148;-1.786;2024-02-21T07:06:43;8.07;;;4.10;;
16975;SDS011;8604;48.148;-1.786;2024-02-21T07:09:12;8.37;;;4.60;;
16975;SDS011;8604;48.148;-1.786;2024-02-21T07:11:42;12.47;;;5.17;;
16975;SDS011;8604;48.148;-1.786;2024-02-21T07:14:10;9.73;;;4.60;;
16975;SDS011;8604;48.148;-1.786;2024-02-21T07:16:39;9.73;;;4.87;;
16975;SDS011;8604;48.148;-1.786;2024-02-21T07:19:08;9.07;;;4.53;;
16975;SDS011;8604;48.148;-1.786;2024-02-21T07:21:37;11.07;;;4.67;;
16975;SDS011;8604;48.148;-1.786;2024-02-21T07:24:07;10.20;;;4.97;;
16975;SDS011;8604;48.148;-1.786;2024-02-21T07:26:36;7.80;;;4.00;;
16975;SDS011;8604;48.148;-1.786;2024-02-21T07:29:04;11.03;;;5.20;;
16975;SDS011;8604;48.148;-1.786;2024-02-21T07:31:38;7.80;;;4.60;;
16975;SDS011;8604;48.148;-1.786;2024-02-21T07:34:06;9.57;;;4.90;;
16975;SDS011;8604;48.148;-1.786;2024-02-21T07:36:37;8.17;;;4.63;;
16975;SDS011;8604;48.148;-1.786;2024-02-21T07:39:05;10.00;;;4.67;;
16975;SDS011;8604;48.148;-1.786;2024-02-21T07:41:34;9.40;;;4.30;;
16975;SDS011;8604;48.148;-1.786;2024-02-21T07:44:02;9.07;;;4.87;;
16975;SDS011;8604;48.148;-1.786;2024-02-21T07:46:31;11.13;;;4.87;;
16975;SDS011;8604;48.148;-1.786;2024-02-21T07:49:00;7.33;;;4.77;;
16975;SDS011;8604;48.148;-1.786;2024-02-21T07:51:30;10.73;;;5.03;;
16975;SDS011;8604;48.148;-1.786;2024-02-21T07:53:58;11.27;;;5.07;;
16975;SDS011;8604;48.148;-1.786;2024-02-21T07:56:27;9.77;;;4.97;;
16975;SDS011;8604;48.148;-1.786;2024-02-21T07:58:56;9.57;;;5.27;;
16975;SDS011;8604;48.148;-1.786;2024-02-21T08:01:24;9.47;;;4.90;;
16975;SDS011;8604;48.148;-1.786;2024-02-21T08:03:53;11.73;;;5.10;;
16975;SDS011;8604;48.148;-1.786;2024-02-21T08:06:21;11.67;;;5.33;;
16975;SDS011;8604;48.148;-1.786;2024-02-21T08:08:51;10.23;;;5.00;;
16975;SDS011;8604;48.148;-1.786;2024-02-21T08:11:20;12.10;;;5.23;;
16975;SDS011;8604;48.148;-1.786;2024-02-21T08:13:48;11.37;;;5.53;;
16975;SDS011;8604;48.148;-1.786;2024-02-21T08:16:17;10.83;;;5.60;;
16975;SDS011;8604;48.148;-1.786;2024-02-21T08:18:45;12.07;;;5.90;;
16975;SDS011;8604;48.148;-1.786;2024-02-21T08:21:13;11.47;;;5.47;;
16975;SDS011;8604;48.148;-1.786;2024-02-21T08:23:41;16.77;;;5.33;;
16975;SDS011;8604;48.148;-1.786;2024-02-21T08:26:10;11.50;;;5.30;;
16975;SDS011;8604;48.148;-1.786;2024-02-21T08:28:39;12.93;;;5.60;;
16975;SDS011;8604;48.148;-1.786;2024-02-21T08:31:07;10.60;;;5.37;;
16975;SDS011;8604;48.148;-1.786;2024-02-21T08:33:36;14.00;;;5.50;;
16975;SDS011;8604;48.148;-1.786;2024-02-21T08:36:05;9.47;;;5.30;;
16975;SDS011;8604;48.148;-1.786;2024-02-21T08:38:35;11.80;;;5.07;;
16975;SDS011;8604;48.148;-1.786;2024-02-21T08:41:04;12.17;;;4.90;;
16975;SDS011;8604;48.148;-1.786;2024-02-21T08:43:34;13.33;;;5.27;;
16975;SDS011;8604;48.148;-1.786;2024-02-21T08:46:03;14.53;;;5.57;;
16975;SDS011;8604;48.148;-1.786;2024-02-21T08:48:31;12.13;;;5.60;;
16975;SDS011;8604;48.148;-1.786;2024-02-21T08:50:59;13.43;;;5.13;;
16975;SDS011;8604;48.148;-1.786;2024-02-21T08:53:28;15.37;;;5.63;;
16975;SDS011;8604;48.148;-1.786;2024-02-21T08:55:56;10.63;;;4.80;;
16975;SDS011;8604;48.148;-1.786;2024-02-21T08:58:26;11.13;;;4.97;;
16975;SDS011;8604;48.148;-1.786;2024-02-21T09:00:55;11.13;;;5.13;;
16975;SDS011;8604;48.148;-1.786;2024-02-21T09:03:24;13.07;;;5.20;;
16975;SDS011;8604;48.148;-1.786;2024-02-21T09:05:52;10.90;;;4.90;;
16975;SDS011;8604;48.148;-1.786;2024-02-21T09:08:21;10.23;;;5.00;;
16975;SDS011;8604;48.148;-1.786;2024-02-21T09:10:50;10.03;;;4.70;;
16975;SDS011;8604;48.148;-1.786;2024-02-21T09:13:19;11.07;;;4.90;;
16975;SDS011;8604;48.148;-1.786;2024-02-21T09:15:47;12.53;;;4.63;;
16975;SDS011;8604;48.148;-1.786;2024-02-21T09:18:17;10.73;;;4.87;;
16975;SDS011;8604;48.148;-1.786;2024-02-21T09:20:46;9.37;;;4.50;;
16975;SDS011;8604;48.148;-1.786;2024-02-21T09:23:15;12.67;;;5.00;;
16975;SDS011;8604;48.148;-1.786;2024-02-21T09:25:43;10.70;;;4.63;;
16975;SDS011;8604;48.148;-1.786;2024-02-21T09:28:12;9.70;;;4.90;;
16975;SDS011;8604;48.148;-1.786;2024-02-21T09:30:41;12.83;;;5.10;;
16975;SDS011;8604;48.148;-1.786;2024-02-21T09:33:09;9.53;;;4.57;;
16975;SDS011;8604;48.148;-1.786;2024-02-21T09:35:47;14.57;;;4.97;;
16975;SDS011;8604;48.148;-1.786;2024-02-21T09:38:16;14.40;;;4.80;;
16975;SDS011;8604;48.148;-1.786;2024-02-21T09:40:45;8.60;;;4.40;;
16975;SDS011;8604;48.148;-1.786;2024-02-21T09:43:15;11.50;;;4.40;;
16975;SDS011;8604;48.148;-1.786;2024-02-21T09:45:47;11.37;;;4.93;;
16975;SDS011;8604;48.148;-1.786;2024-02-21T09:48:25;9.13;;;4.13;;
16975;SDS011;8604;48.148;-1.786;2024-02-21T09:51:08;13.03;;;4.80;;
16975;SDS011;8604;48.148;-1.786;2024-02-21T09:53:38;10.37;;;4.50;;
16975;SDS011;8604;48.148;-1.786;2024-02-21T09:56:14;14.50;;;4.60;;
16975;SDS011;8604;48.148;-1.786;2024-02-21T09:58:42;13.13;;;5.20;;
16975;SDS011;8604;48.148;-1.786;2024-02-21T10:01:11;10.67;;;4.70;;
16975;SDS011;8604;48.148;-1.786;2024-02-21T10:03:55;11.23;;;4.70;;
16975;SDS011;8604;48.148;-1.786;2024-02-21T10:06:26;12.27;;;4.70;;
16975;SDS011;8604;48.148;-1.786;2024-02-21T10:08:54;13.93;;;4.80;;
16975;SDS011;8604;48.148;-1.786;2024-02-21T10:11:23;14.27;;;4.80;;
16975;SDS011;8604;48.148;-1.786;2024-02-21T10:14:02;13.90;;;5.00;;
16975;SDS011;8604;48.148;-1.786;2024-02-21T10:16:31;7.90;;;4.33;;
16975;SDS011;8604;48.148;-1.786;2024-02-21T10:19:00;9.87;;;4.40;;
16975;SDS011;8604;48.148;-1.786;2024-02-21T10:21:32;11.33;;;4.30;;
16975;SDS011;8604;48.148;-1.786;2024-02-21T10:24:01;14.30;;;4.90;;
16975;SDS011;8604;48.148;-1.786;2024-02-21T10:26:29;14.30;;;4.80;;
16975;SDS011;8604;48.148;-1.786;2024-02-21T10:28:57;13.33;;;4.93;;
16975;SDS011;8604;48.148;-1.786;2024-02-21T10:31:27;10.20;;;4.30;;
16975;SDS011;8604;48.148;-1.786;2024-02-21T10:33:56;13.27;;;4.80;;
16975;SDS011;8604;48.148;-1.786;2024-02-21T10:36:25;11.83;;;4.53;;
16975;SDS011;8604;48.148;-1.786;2024-02-21T10:38:55;13.50;;;4.87;;
16975;SDS011;8604;48.148;-1.786;2024-02-21T10:41:24;11.83;;;4.17;;
16975;SDS011;8604;48.148;-1.786;2024-02-21T10:43:54;11.87;;;4.27;;
16975;SDS011;8604;48.148;-1.786;2024-02-21T10:46:23;12.33;;;4.67;;
16975;SDS011;8604;48.148;-1.786;2024-02-21T10:48:56;11.57;;;4.00;;
16975;SDS011;8604;48.148;-1.786;2024-02-21T10:51:31;9.27;;;3.70;;
16975;SDS011;8604;48.148;-1.786;2024-02-21T10:54:08;9.77;;;4.10;;
16975;SDS011;8604;48.148;-1.786;2024-02-21T10:56:47;12.90;;;4.20;;
16975;SDS011;8604;48.148;-1.786;2024-02-21T10:59:18;12.63;;;4.10;;
16975;SDS011;8604;48.148;-1.786;2024-02-21T11:01:47;11.57;;;3.70;;
16975;SDS011;8604;48.148;-1.786;2024-02-21T11:04:15;10.93;;;4.03;;
16975;SDS011;8604;48.148;-1.786;2024-02-21T11:06:44;11.63;;;4.20;;
16975;SDS011;8604;48.148;-1.786;2024-02-21T11:09:15;11.10;;;3.67;;
16975;SDS011;8604;48.148;-1.786;2024-02-21T11:11:44;11.07;;;3.77;;
16975;SDS011;8604;48.148;-1.786;2024-02-21T11:14:17;13.10;;;4.20;;
16975;SDS011;8604;48.148;-1.786;2024-02-21T11:16:48;9.47;;;3.57;;
16975;SDS011;8604;48.148;-1.786;2024-02-21T11:19:19;12.37;;;4.20;;
16975;SDS011;8604;48.148;-1.786;2024-02-21T11:21:49;8.77;;;3.60;;
16975;SDS011;8604;48.148;-1.786;2024-02-21T11:24:29;9.27;;;3.47;;
16975;SDS011;8604;48.148;-1.786;2024-02-21T11:27:09;10.47;;;3.60;;
16975;SDS011;8604;48.148;-1.786;2024-02-21T11:29:42;9.93;;;3.50;;
16975;SDS011;8604;48.148;-1.786;2024-02-21T11:32:11;11.80;;;3.70;;
16975;SDS011;8604;48.148;-1.786;2024-02-21T11:34:52;9.20;;;3.30;;
16975;SDS011;8604;48.148;-1.786;2024-02-21T11:37:23;10.97;;;3.30;;
16975;SDS011;8604;48.148;-1.786;2024-02-21T11:39:55;10.40;;;3.90;;
16975;SDS011;8604;48.148;-1.786;2024-02-21T11:42:24;11.67;;;3.90;;
16975;SDS011;8604;48.148;-1.786;2024-02-21T11:44:53;8.83;;;3.40;;
16975;SDS011;8604;48.148;-1.786;2024-02-21T11:47:23;11.07;;;3.70;;
16975;SDS011;8604;48.148;-1.786;2024-02-21T11:49:52;9.77;;;3.43;;
16975;SDS011;8604;48.148;-1.786;2024-02-21T11:52:21;7.63;;;3.20;;
16975;SDS011;8604;48.148;-1.786;2024-02-21T11:54:53;6.87;;;2.97;;
16975;SDS011;8604;48.148;-1.786;2024-02-21T11:57:25;11.47;;;3.33;;
16975;SDS011;8604;48.148;-1.786;2024-02-21T11:59:54;10.50;;;3.03;;
16975;SDS011;8604;48.148;-1.786;2024-02-21T12:02:26;8.93;;;3.23;;
16975;SDS011;8604;48.148;-1.786;2024-02-21T12:04:55;7.80;;;2.97;;
16975;SDS011;8604;48.148;-1.786;2024-02-21T12:07:24;10.87;;;3.37;;
16975;SDS011;8604;48.148;-1.786;2024-02-21T12:09:58;7.83;;;3.10;;
16975;SDS011;8604;48.148;-1.786;2024-02-21T12:12:28;7.70;;;3.40;;
16975;SDS011;8604;48.148;-1.786;2024-02-21T12:14:56;12.07;;;3.60;;
16975;SDS011;8604;48.148;-1.786;2024-02-21T12:17:25;8.63;;;3.27;;
16975;SDS011;8604;48.148;-1.786;2024-02-21T12:19:54;9.87;;;3.57;;
16975;SDS011;8604;48.148;-1.786;2024-02-21T12:22:22;11.90;;;3.80;;
16975;SDS011;8604;48.148;-1.786;2024-02-21T12:24:53;9.03;;;3.33;;
16975;SDS011;8604;48.148;-1.786;2024-02-21T12:27:21;8.17;;;3.23;;
16975;SDS011;8604;48.148;-1.786;2024-02-21T12:29:51;10.80;;;3.90;;
16975;SDS011;8604;48.148;-1.786;2024-02-21T12:32:20;10.37;;;3.63;;
16975;SDS011;8604;48.148;-1.786;2024-02-21T12:34:48;10.03;;;3.90;;
16975;SDS011;8604;48.148;-1.786;2024-02-21T12:37:21;9.30;;;3.60;;
16975;SDS011;8604;48.148;-1.786;2024-02-21T12:39:51;9.10;;;3.63;;
16975;SDS011;8604;48.148;-1.786;2024-02-21T12:42:19;12.33;;;3.60;;
16975;SDS011;8604;48.148;-1.786;2024-02-21T12:44:51;10.70;;;3.20;;
16975;SDS011;8604;48.148;-1.786;2024-02-21T12:47:20;12.87;;;3.50;;
16975;SDS011;8604;48.148;-1.786;2024-02-21T12:49:50;11.87;;;3.17;;
16975;SDS011;8604;48.148;-1.786;2024-02-21T12:52:19;10.33;;;3.43;;
16975;SDS011;8604;48.148;-1.786;2024-02-21T12:54:47;8.57;;;3.50;;
16975;SDS011;8604;48.148;-1.786;2024-02-21T12:57:17;9.23;;;3.10;;
16975;SDS011;8604;48.148;-1.786;2024-02-21T12:59:45;7.13;;;3.10;;
16975;SDS011;8604;48.148;-1.786;2024-02-21T13:02:15;8.10;;;3.70;;
16975;SDS011;8604;48.148;-1.786;2024-02-21T13:04:45;8.37;;;3.47;;
16975;SDS011;8604;48.148;-1.786;2024-02-21T13:07:13;10.80;;;3.40;;
16975;SDS011;8604;48.148;-1.786;2024-02-21T13:09:42;9.17;;;3.33;;
16975;SDS011;8604;48.148;-1.786;2024-02-21T13:12:10;10.47;;;3.87;;
16975;SDS011;8604;48.148;-1.786;2024-02-21T13:14:39;12.00;;;4.03;;
16975;SDS011;8604;48.148;-1.786;2024-02-21T13:17:10;13.40;;;3.90;;
16975;SDS011;8604;48.148;-1.786;2024-02-21T13:19:40;11.50;;;3.60;;
16975;SDS011;8604;48.148;-1.786;2024-02-21T13:22:08;9.07;;;3.60;;
16975;SDS011;8604;48.148;-1.786;2024-02-21T13:24:37;8.77;;;3.50;;
16975;SDS011;8604;48.148;-1.786;2024-02-21T13:27:06;10.13;;;3.77;;
16975;SDS011;8604;48.148;-1.786;2024-02-21T13:29:34;8.47;;;3.80;;
16975;SDS011;8604;48.148;-1.786;2024-02-21T13:32:02;10.10;;;3.43;;
16975;SDS011;8604;48.148;-1.786;2024-02-21T13:34:32;11.23;;;4.30;;
16975;SDS011;8604;48.148;-1.786;2024-02-21T13:37:02;10.63;;;4.20;;
16975;SDS011;8604;48.148;-1.786;2024-02-21T13:39:33;12.27;;;3.93;;
16975;SDS011;8604;48.148;-1.786;2024-02-21T13:42:02;11.37;;;4.03;;
16975;SDS011;8604;48.148;-1.786;2024-02-21T13:44:32;13.23;;;4.37;;
16975;SDS011;8604;48.148;-1.786;2024-02-21T13:47:01;12.60;;;3.97;;
16975;SDS011;8604;48.148;-1.786;2024-02-21T13:49:30;9.73;;;4.20;;
16975;SDS011;8604;48.148;-1.786;2024-02-21T13:51:59;13.40;;;4.10;;
16975;SDS011;8604;48.148;-1.786;2024-02-21T13:54:29;8.33;;;3.80;;
16975;SDS011;8604;48.148;-1.786;2024-02-21T13:56:57;9.27;;;3.93;;
16975;SDS011;8604;48.148;-1.786;2024-02-21T13:59:26;10.23;;;4.23;;
16975;SDS011;8604;48.148;-1.786;2024-02-21T14:01:54;12.30;;;4.30;;
16975;SDS011;8604;48.148;-1.786;2024-02-21T14:04:22;14.43;;;6.27;;
16975;SDS011;8604;48.148;-1.786;2024-02-21T14:06:51;12.80;;;4.63;;
16975;SDS011;8604;48.148;-1.786;2024-02-21T14:09:20;10.53;;;4.53;;
16975;SDS011;8604;48.148;-1.786;2024-02-21T14:11:49;10.60;;;4.20;;
16975;SDS011;8604;48.148;-1.786;2024-02-21T14:14:18;12.57;;;4.23;;
16975;SDS011;8604;48.148;-1.786;2024-02-21T14:16:46;13.50;;;4.73;;
16975;SDS011;8604;48.148;-1.786;2024-02-21T14:19:15;12.53;;;4.43;;
16975;SDS011;8604;48.148;-1.786;2024-02-21T14:21:44;13.43;;;6.67;;
16975;SDS011;8604;48.148;-1.786;2024-02-21T14:24:12;12.57;;;5.80;;
16975;SDS011;8604;48.148;-1.786;2024-02-21T14:26:40;10.93;;;6.03;;
16975;SDS011;8604;48.148;-1.786;2024-02-21T14:29:10;13.20;;;5.10;;
16975;SDS011;8604;48.148;-1.786;2024-02-21T14:31:39;11.83;;;4.87;;
16975;SDS011;8604;48.148;-1.786;2024-02-21T14:34:07;13.53;;;6.17;;
16975;SDS011;8604;48.148;-1.786;2024-02-21T14:36:36;12.03;;;4.87;;
16975;SDS011;8604;48.148;-1.786;2024-02-21T14:39:04;10.83;;;5.80;;
16975;SDS011;8604;48.148;-1.786;2024-02-21T14:41:33;10.67;;;4.80;;
16975;SDS011;8604;48.148;-1.786;2024-02-21T14:44:02;8.93;;;4.20;;
16975;SDS011;8604;48.148;-1.786;2024-02-21T14:46:33;11.90;;;5.10;;
16975;SDS011;8604;48.148;-1.786;2024-02-21T14:49:02;9.03;;;3.80;;
16975;SDS011;8604;48.148;-1.786;2024-02-21T14:51:30;10.73;;;4.30;;
16975;SDS011;8604;48.148;-1.786;2024-02-21T14:53:59;8.57;;;4.23;;
16975;SDS011;8604;48.148;-1.786;2024-02-21T14:56:28;8.90;;;5.17;;